Dry Creek, WV (25062)

11:46 AM EDT on March 27, 2015 (GMT -0400)
Fairdale | | Change Station
CLOSE
Current Station
Personal Weather Station
Location: Lester, WV
Elevation: 1938 ft
Nearby Weather Stations

Elev 1938 ft 37.74 °N, 81.35 °W | Updated 11 seconds ago

Overcast
Overcast
40.5 °F
Feels Like 40 °F
N
2.7
Wind Variable Wind from WSW
Gusts 2.7 mph

Today
High -- | Low -- °F
--% Chance of Precip.
Yesterday
High -- | Low -- °F
Precip. -- in
7:18 AM 7:43 PM
First Quarter, 53% visible
Pressure 29.90 in
Visibility 9.0 miles
Clouds Mostly Cloudy 1500 ft
Overcast 2200 ft
Windchill 40 °F
Dew Point 15 °F
Humidity 35%
Rainfall 0.08 in
Snow Depth Not available.
UV 2 out of 12
Pollen 5.60 out of 12
Air Quality Not available.
Flu Activity Not available.
METAR KBKW 271451Z AUTO 31010KT 9SM BKN015 OVC022 01/M03 A2984 RMK AO2 SLP124 T00061028 51008

More Conditions Fewer Conditions

Pressure 29.90 in
Visibility 9.0 miles
Clouds Mostly Cloudy 1500 ft
Overcast 2200 ft
Windchill 40 °F
Dew Point 15 °F
Humidity 35%
Rainfall 0.08 in
Snow Depth Not available.
UV 2 out of 12
Pollen 5.60 out of 12
Air Quality Not available.
Flu Activity Not available.
METAR KBKW 271451Z AUTO 31010KT 9SM BKN015 OVC022 01/M03 A2984 RMK AO2 SLP124 T00061028 51008

More Conditions Fewer Conditions

10-Day Weather Forecast

Almanac

Astronomy

Mar. 27, 2015 Rise Set
Actual Time
Civil Twilight
Nautical Twilight
Astronomical Twilight
Moon
Length of Visible Light
Length of Day
Tomorrow will be .
, % of the Moon is Illuminated

Today's Extremes

State Highs State Lows

Community

WunderPhotos

Upload Photos

1,808,762 photos uploaded!

WunderBlogs® & News

Nearby

Air Quality

  Air Quality AQ Index Pollutant
Not available.

Snow Depth

Station Depth Elevation

Earthquake Activity

City Distance Mag. Time & Date
Minimum magnitude displayed is 2.5.

Coastal Water Temperatures

Place Temperature

Stations

Nearby Weather Stations

Station Location Temp. Windchill Dew Point Humidity Wind Precip. Elev Updated Type